createdAt,value
2019-04-03T00:00:09.407Z,15.83
2019-04-03T00:01:09.457Z,15.79
2019-04-03T00:02:09.193Z,15.79
2019-04-03T00:03:09.271Z,15.82
2019-04-03T00:04:09.582Z,15.75
2019-04-03T00:05:09.549Z,15.76
2019-04-03T00:06:10.345Z,15.82
2019-04-03T00:07:10.383Z,15.75
2019-04-03T00:08:10.827Z,15.76
2019-04-03T00:09:10.982Z,15.75
2019-04-03T00:10:11.212Z,15.73
2019-04-03T00:11:11.277Z,15.68
2019-04-03T00:12:10.421Z,15.68
2019-04-03T00:13:10.701Z,15.61
2019-04-03T00:14:08.906Z,15.7
2019-04-03T00:15:08.912Z,15.62
2019-04-03T00:16:08.773Z,15.64
2019-04-03T00:17:08.758Z,15.65
2019-04-03T00:18:08.730Z,15.77
2019-04-03T00:19:08.528Z,15.76
2019-04-03T00:20:08.506Z,15.62
2019-04-03T00:21:08.543Z,15.62
2019-04-03T00:22:08.647Z,15.59
2019-04-03T00:23:08.760Z,15.65
2019-04-03T00:24:08.498Z,15.59
2019-04-03T00:25:08.512Z,15.54
2019-04-03T00:26:08.513Z,15.58
2019-04-03T00:27:08.490Z,15.57
2019-04-03T00:28:08.503Z,15.47
2019-04-03T00:29:08.887Z,15.42
2019-04-03T00:30:08.500Z,15.47
2019-04-03T00:31:08.934Z,15.46
2019-04-03T00:32:08.499Z,15.43
2019-04-03T00:33:08.285Z,15.35
2019-04-03T00:34:08.492Z,15.42
2019-04-03T00:35:08.481Z,15.33
2019-04-03T00:36:08.872Z,15.35
2019-04-03T00:37:08.793Z,15.27
2019-04-03T00:38:08.280Z,15.17
2019-04-03T00:39:08.720Z,15.24
2019-04-03T00:40:08.805Z,15.21
2019-04-03T00:41:08.496Z,15.28
2019-04-03T00:42:08.757Z,15.25
2019-04-03T00:43:08.234Z,15.31
2019-04-03T00:44:08.484Z,15.31
2019-04-03T00:45:08.458Z,15.33
2019-04-03T00:46:08.861Z,15.27
2019-04-03T00:47:08.703Z,15.25
2019-04-03T00:48:08.486Z,15.25
2019-04-03T00:49:09.524Z,15.33
2019-04-03T00:50:11.734Z,15.27
2019-04-03T00:51:09.609Z,15.28
2019-04-03T00:52:08.688Z,15.28
2019-04-03T00:53:08.873Z,15.37
2019-04-03T00:54:08.712Z,15.24
2019-04-03T00:55:08.761Z,15.29
2019-04-03T00:56:08.924Z,15.36
2019-04-03T00:57:08.437Z,15.28
2019-04-03T00:58:08.196Z,15.24
2019-04-03T00:59:08.518Z,15.22
2019-04-03T01:00:08.579Z,15.22
2019-04-03T01:01:08.446Z,15.33
2019-04-03T01:02:08.788Z,15.35
2019-04-03T01:03:08.460Z,15.35
2019-04-03T01:04:08.435Z,15.21
2019-04-03T01:05:08.583Z,15.28
2019-04-03T01:06:08.240Z,15.31
2019-04-03T01:07:08.677Z,15.27
2019-04-03T01:08:08.654Z,15.21
2019-04-03T01:09:08.655Z,15.22
2019-04-03T01:10:08.410Z,15.19
2019-04-03T01:11:08.648Z,15.11
2019-04-03T01:12:08.397Z,15.24
2019-04-03T01:13:08.651Z,15.22
2019-04-03T01:14:08.652Z,15.15
2019-04-03T01:15:08.666Z,15.15
2019-04-03T01:16:08.836Z,15.18
2019-04-03T01:17:09.299Z,15.07
2019-04-03T01:18:09.693Z,15.11
2019-04-03T01:19:10.868Z,15.02
2019-04-03T01:20:11.119Z,15.02
2019-04-03T01:21:11.166Z,15
2019-04-03T01:22:10.330Z,15.07
2019-04-03T01:23:10.065Z,15.04
2019-04-03T01:24:10.705Z,15.14
2019-04-03T01:25:11.063Z,14.99
2019-04-03T01:26:09.996Z,15.04
2019-04-03T01:27:08.153Z,15.07
2019-04-03T01:28:09.769Z,15.06
2019-04-03T01:29:08.386Z,14.94
2019-04-03T01:30:08.650Z,14.94
2019-04-03T01:31:08.645Z,14.92
2019-04-03T01:32:08.398Z,14.81
2019-04-03T01:33:08.375Z,14.84
2019-04-03T01:34:08.149Z,14.77
2019-04-03T01:35:11.532Z,14.73
2019-04-03T01:36:08.520Z,14.78
2019-04-03T01:37:08.625Z,14.62
2019-04-03T01:38:08.675Z,14.63
2019-04-03T01:39:08.608Z,14.6
2019-04-03T01:40:08.711Z,14.53
2019-04-03T01:41:08.604Z,14.51
2019-04-03T01:42:08.544Z,14.51
2019-04-03T01:43:08.624Z,14.47
2019-04-03T01:44:08.604Z,14.47
2019-04-03T01:45:08.668Z,14.45
2019-04-03T01:46:08.609Z,14.48
2019-04-03T01:47:08.587Z,14.59
2019-04-03T01:48:08.344Z,14.55
2019-04-03T01:49:08.330Z,14.48
2019-04-03T01:50:08.572Z,14.41
2019-04-03T01:51:08.087Z,14.33
2019-04-03T01:52:08.405Z,14.33
2019-04-03T01:53:08.657Z,14.33
2019-04-03T01:54:08.583Z,14.32
2019-04-03T01:55:08.928Z,14.23
2019-04-03T01:56:09.428Z,14.25
2019-04-03T01:57:10.558Z,14.22
2019-04-03T01:58:11.101Z,14.23
2019-04-03T01:59:10.966Z,14.22
2019-04-03T02:00:10.399Z,14.23
2019-04-03T02:01:09.927Z,14.29
2019-04-03T02:02:10.617Z,14.2
2019-04-03T02:03:09.702Z,14.15
2019-04-03T02:04:08.318Z,14.11
2019-04-03T02:05:08.830Z,14.07
2019-04-03T02:06:08.051Z,13.96
2019-04-03T02:07:08.327Z,14.07
2019-04-03T02:08:08.642Z,14.05
2019-04-03T02:09:08.282Z,14.08
2019-04-03T02:10:08.027Z,13.97
2019-04-03T02:11:08.555Z,14
2019-04-03T02:12:08.539Z,13.93
2019-04-03T02:13:08.292Z,14.05
2019-04-03T02:14:08.271Z,13.99
2019-04-03T02:15:08.510Z,14.04
2019-04-03T02:16:11.323Z,14.05
2019-04-03T02:17:14.924Z,13.99
2019-04-03T02:18:08.253Z,14
2019-04-03T02:19:08.335Z,13.93
2019-04-03T02:20:11.564Z,13.95
2019-04-03T02:21:08.664Z,13.96
2019-04-03T02:22:08.255Z,13.96
2019-04-03T02:23:08.262Z,13.89
2019-04-03T02:24:07.997Z,13.92
2019-04-03T02:25:08.641Z,13.96
2019-04-03T02:26:08.044Z,13.95
2019-04-03T02:27:08.495Z,13.95
2019-04-03T02:28:09.327Z,13.92
2019-04-03T18:34:02.814Z,7.38
2019-04-03T18:35:02.509Z,7.45
2019-04-03T18:36:02.723Z,7.5
2019-04-03T18:37:07.397Z,7.48
2019-04-03T18:38:02.963Z,7.51
2019-04-03T18:39:03.749Z,7.51
2019-04-03T18:40:02.450Z,7.56
2019-04-03T18:41:04.087Z,7.5
2019-04-03T18:42:02.424Z,7.45
2019-04-03T18:43:02.918Z,7.57
2019-04-03T18:44:02.904Z,7.53
2019-04-03T18:45:02.842Z,7.56
2019-04-03T18:46:04.652Z,7.5
2019-04-03T18:47:02.678Z,7.4
2019-04-03T18:48:02.883Z,7.47
2019-04-03T18:49:05.889Z,7.5
2019-04-03T18:50:05.400Z,7.43
2019-04-03T18:51:05.481Z,7.43
2019-04-03T18:52:02.857Z,7.6
2019-04-03T18:53:02.332Z,7.6
2019-04-03T18:54:02.601Z,7.7
2019-04-03T18:55:02.571Z,7.7
2019-04-03T18:56:02.575Z,7.67
2019-04-03T18:57:02.818Z,7.77
2019-04-03T18:58:02.828Z,7.85
2019-04-03T18:59:02.566Z,7.97
2019-04-03T19:00:05.471Z,7.9
2019-04-03T19:01:04.433Z,7.88
2019-04-03T19:02:05.714Z,7.9
2019-04-03T19:03:04.056Z,7.9
2019-04-03T19:04:02.521Z,7.93
2019-04-03T19:05:09.236Z,7.97
2019-04-03T19:06:04.295Z,7.97
2019-04-03T19:07:02.519Z,7.97
2019-04-03T19:08:17.772Z,7.94
2019-04-03T19:09:14.626Z,7.98
2019-04-03T19:10:12.058Z,7.93
2019-04-03T19:11:11.922Z,7.98
2019-04-03T19:12:15.194Z,7.97
2019-04-03T19:13:02.556Z,7.98
2019-04-03T19:14:02.437Z,7.94
2019-04-03T19:15:05.158Z,8.08
2019-04-03T19:16:04.442Z,8.03
2019-04-03T19:17:02.421Z,8.1
2019-04-03T19:18:20.581Z,8.01
2019-04-03T19:19:12.630Z,8.12
2019-04-03T19:20:14.847Z,8.06
2019-04-03T19:21:02.398Z,8.26
2019-04-03T19:22:02.622Z,8.13
2019-04-03T19:23:11.042Z,8.16
2019-04-03T19:24:02.635Z,8.16
2019-04-03T19:25:03.359Z,8.06
2019-04-03T19:26:04.554Z,8.06
2019-04-03T19:27:04.773Z,8.09
2019-04-03T19:28:04.000Z,8.05
2019-04-03T19:29:04.688Z,8.09
2019-04-03T19:30:02.580Z,8.06
2019-04-03T19:31:02.085Z,8.03
2019-04-03T19:32:02.700Z,8.13
2019-04-03T19:33:02.686Z,8.08
2019-04-03T19:34:02.345Z,8.12
2019-04-03T19:35:02.392Z,8.15
2019-04-03T19:36:04.025Z,8.13
2019-04-03T19:37:05.346Z,8.12
2019-04-03T19:38:04.529Z,8.18
2019-04-03T19:39:02.032Z,8.15
2019-04-03T19:40:04.087Z,8.19
2019-04-03T19:41:02.014Z,8.05
2019-04-03T19:42:02.293Z,8.01
2019-04-03T19:43:02.517Z,8.05
2019-04-03T19:44:05.521Z,8.03
2019-04-03T19:45:02.260Z,8.03
2019-04-03T19:46:02.237Z,8.08
2019-04-03T19:47:02.242Z,8.09
2019-04-03T19:48:01.969Z,8.01
2019-04-03T19:49:02.501Z,8.09
2019-04-03T19:50:04.984Z,8.03
2019-04-03T19:51:05.178Z,8.06
2019-04-03T19:52:02.196Z,8.03
2019-04-03T19:53:02.421Z,8.03
2019-04-03T19:54:04.282Z,8.03
2019-04-03T19:55:02.429Z,8.08
2019-04-03T19:56:02.185Z,8.08
2019-04-03T19:57:03.395Z,8.03
2019-04-03T19:58:03.140Z,8.06
2019-04-03T19:59:07.114Z,8.03
2019-04-03T20:00:04.944Z,7.94
2019-04-03T20:01:03.524Z,7.94
2019-04-03T20:02:02.373Z,7.95
2019-04-03T20:03:02.378Z,7.91
2019-04-03T20:04:02.359Z,8
2019-04-03T20:05:02.468Z,7.95
2019-04-03T20:06:02.360Z,7.88
2019-04-03T20:07:01.848Z,7.95
2019-04-03T20:08:03.852Z,7.95
2019-04-03T20:09:05.392Z,7.93
2019-04-03T20:10:05.335Z,7.91
2019-04-03T20:11:02.966Z,7.93
2019-04-03T20:12:01.879Z,7.91
2019-04-03T20:13:02.314Z,7.97
2019-04-03T20:14:02.320Z,7.91
2019-04-03T20:15:04.866Z,7.95
2019-04-03T20:16:02.094Z,7.94
2019-04-03T20:17:03.116Z,7.87
2019-04-03T20:18:02.024Z,7.87
2019-04-03T20:19:02.038Z,7.88
2019-04-03T20:20:02.776Z,7.94
2019-04-03T20:21:03.749Z,7.93
2019-04-03T20:22:01.746Z,7.93
2019-04-03T20:23:02.268Z,7.93
2019-04-03T20:24:02.276Z,7.88
2019-04-03T20:25:04.923Z,7.8
2019-04-03T20:26:04.523Z,7.82
2019-04-03T20:27:01.738Z,7.69
2019-04-03T20:28:02.587Z,7.66
2019-04-03T20:29:04.654Z,7.56
2019-04-03T20:30:05.339Z,7.58
2019-04-03T20:31:03.740Z,7.5
2019-04-03T20:32:01.930Z,7.48
2019-04-03T20:33:02.185Z,7.47
2019-04-03T20:34:01.911Z,7.53
2019-04-03T20:35:02.169Z,7.48
2019-04-03T20:36:01.894Z,7.45
2019-04-03T20:37:02.138Z,7.38
2019-04-03T20:38:02.245Z,7.4
2019-04-03T20:39:04.236Z,7.39
2019-04-03T20:40:04.629Z,7.47
2019-04-03T20:41:05.306Z,7.35
2019-04-03T20:42:03.391Z,7.4
2019-04-03T20:43:02.162Z,7.43
2019-04-03T20:44:02.089Z,7.43
2019-04-03T20:45:01.835Z,7.36
2019-04-03T20:46:02.099Z,7.31
2019-04-03T20:47:02.087Z,7.29
2019-04-03T20:48:02.280Z,7.32
2019-04-03T20:49:05.358Z,7.28
2019-04-03T20:50:02.110Z,7.28
2019-04-03T20:51:02.126Z,7.32
2019-04-03T20:52:01.546Z,7.29
2019-04-03T20:53:01.827Z,7.25
2019-04-03T20:54:01.765Z,7.25
2019-04-03T20:55:02.017Z,7.18
2019-04-03T20:56:03.393Z,7.29
2019-04-03T20:57:05.048Z,7.25
2019-04-03T20:58:01.748Z,7.21
2019-04-03T20:59:01.984Z,7.2
2019-04-03T21:00:07.069Z,7.13
2019-04-03T21:01:11.160Z,7.15
2019-04-03T21:02:02.046Z,7.14
2019-04-03T21:03:01.466Z,7.07
2019-04-03T21:04:01.979Z,7.1
2019-04-03T21:05:01.945Z,7.11
2019-04-03T21:06:02.051Z,7.18
2019-04-03T21:07:01.690Z,7.17
2019-04-03T21:08:01.685Z,7.14
2019-04-03T21:09:04.018Z,7.17
2019-04-03T21:10:03.520Z,7.23
2019-04-03T21:11:04.532Z,7.29
2019-04-03T21:12:03.061Z,7.25
2019-04-03T21:13:01.640Z,7.36
2019-04-03T21:14:01.638Z,7.45
2019-04-03T21:15:15.898Z,7.4
2019-04-03T21:16:01.634Z,7.38
2019-04-03T21:17:02.173Z,7.51
2019-04-03T21:18:01.836Z,7.4
2019-04-03T21:19:01.849Z,7.38
2019-04-03T21:20:01.849Z,7.38
2019-04-03T21:21:03.906Z,7.36
2019-04-03T21:22:04.008Z,7.35
2019-04-03T21:23:03.793Z,7.38
2019-04-03T21:24:01.957Z,7.38
2019-04-03T21:25:04.854Z,7.38
2019-04-03T21:26:01.571Z,7.36
2019-04-03T21:27:02.591Z,7.32
2019-04-03T21:28:01.296Z,7.36
2019-04-03T21:29:01.520Z,7.39
2019-04-03T21:30:03.134Z,7.33
2019-04-03T21:31:01.537Z,7.36
2019-04-03T21:32:01.698Z,7.35
2019-04-03T21:33:04.385Z,7.43
2019-04-03T21:34:04.321Z,7.31
2019-04-03T21:35:04.180Z,7.36
2019-04-03T21:36:01.224Z,7.31
2019-04-03T21:37:01.733Z,7.35
2019-04-03T21:38:01.714Z,7.31
2019-04-03T21:39:01.199Z,7.31
2019-04-03T21:40:05.591Z,7.25
2019-04-03T21:41:01.454Z,7.25
2019-04-03T21:42:01.705Z,7.24
2019-04-03T21:43:03.094Z,7.23
2019-04-03T21:44:04.290Z,7.33
2019-04-03T21:45:07.060Z,7.28
2019-04-03T21:46:01.658Z,7.32
2019-04-03T21:47:01.397Z,7.31
2019-04-03T21:48:01.399Z,7.38
2019-04-03T21:49:01.375Z,7.38
2019-04-03T21:50:03.583Z,7.39
2019-04-03T21:51:01.410Z,7.36
2019-04-03T21:52:01.620Z,7.43
2019-04-03T21:53:01.358Z,7.43
2019-04-03T21:54:01.356Z,7.38
2019-04-03T21:55:04.793Z,7.35
2019-04-03T21:56:04.382Z,7.38
2019-04-03T21:57:01.318Z,7.35
2019-04-03T21:58:01.313Z,7.32
2019-04-03T21:59:01.117Z,7.33
2019-04-03T22:00:01.551Z,7.42
2019-04-03T22:01:03.468Z,7.4
2019-04-03T22:02:01.572Z,7.39
2019-04-03T22:03:01.054Z,7.45
2019-04-03T22:04:01.278Z,7.51
2019-04-03T22:05:01.267Z,7.6
2019-04-03T22:06:01.259Z,7.51
2019-04-03T22:07:03.040Z,7.38
2019-04-03T22:08:02.784Z,7.45
2019-04-03T22:09:04.488Z,7.4
2019-04-03T22:10:03.875Z,7.47
2019-04-03T22:11:03.694Z,7.4
2019-04-03T22:12:01.207Z,7.5
2019-04-03T22:13:01.220Z,7.48
2019-04-03T22:14:01.436Z,7.45
2019-04-03T22:15:01.214Z,7.45
2019-04-03T22:16:01.196Z,7.48
2019-04-03T22:17:01.192Z,7.42
2019-04-03T22:18:01.426Z,7.45
2019-04-03T22:19:01.189Z,7.53
2019-04-03T22:20:03.318Z,7.43
2019-04-03T22:21:04.064Z,7.43
2019-04-03T22:22:02.933Z,7.5
2019-04-03T22:23:02.902Z,7.51
2019-04-03T22:24:01.374Z,7.58
2019-04-03T22:25:00.873Z,7.58
2019-04-03T22:26:00.861Z,7.48
2019-04-03T22:27:01.098Z,7.6
2019-04-03T22:28:01.356Z,7.72
2019-04-03T22:29:01.362Z,7.7
2019-04-03T22:30:01.089Z,7.73
2019-04-03T22:31:01.347Z,7.7
2019-04-03T23:03:58.936Z,7.7
2019-04-03T23:04:58.929Z,7.75
2019-04-03T23:05:59.157Z,7.61
2019-04-03T23:06:59.147Z,7.7
2019-04-03T23:07:58.916Z,7.66
2019-04-03T23:08:59.263Z,7.6
2019-04-03T23:10:01.581Z,7.57
2019-04-03T23:11:01.301Z,7.58
2019-04-03T23:11:59.117Z,7.5
2019-04-03T23:12:58.832Z,7.51
2019-04-03T23:13:59.078Z,7.53
2019-04-03T23:14:59.077Z,7.5
2019-04-03T23:15:59.053Z,7.5
2019-04-03T23:16:59.047Z,7.45
2019-04-03T23:17:58.772Z,7.4
2019-04-03T23:18:59.021Z,7.43
2019-04-03T23:19:58.776Z,7.43
2019-04-03T23:20:59.001Z,7.47
2019-04-03T23:21:59.620Z,7.4
2019-04-03T23:23:00.960Z,7.43
2019-04-03T23:24:00.861Z,7.42
2019-04-03T23:25:01.792Z,7.38
2019-04-03T23:26:00.773Z,7.42
2019-04-03T23:26:58.960Z,7.38
2019-04-03T23:27:58.969Z,7.33
2019-04-03T23:28:58.938Z,7.33
2019-04-03T23:29:58.689Z,7.29
2019-04-03T23:30:58.678Z,7.29
2019-04-03T23:31:58.920Z,7.17
2019-04-03T23:32:58.670Z,7.07
2019-04-03T23:33:58.903Z,7.07
2019-04-03T23:34:58.897Z,7.03
2019-04-03T23:35:58.895Z,6.99
2019-04-03T23:36:59.318Z,7
2019-04-03T23:38:00.805Z,6.92
2019-04-03T23:39:01.324Z,7.03
2019-04-03T23:39:59.122Z,6.96
2019-04-03T23:40:58.847Z,6.97
2019-04-03T23:41:58.592Z,6.99
2019-04-03T23:42:58.848Z,6.99
2019-04-03T23:43:58.832Z,6.97
2019-04-03T23:44:58.331Z,6.87
2019-04-03T23:45:58.870Z,6.84
2019-04-03T23:46:58.825Z,6.92
2019-04-03T23:47:59.171Z,6.93
2019-04-03T23:48:58.293Z,6.88
2019-04-03T23:49:58.817Z,6.95
2019-04-03T23:50:58.780Z,6.84
2019-04-03T23:52:01.194Z,6.72
2019-04-03T23:52:59.048Z,6.74
2019-04-03T23:53:58.757Z,6.64
2019-04-03T23:54:58.515Z,6.69
2019-04-03T23:55:58.786Z,6.7
2019-04-03T23:56:58.507Z,6.7
2019-04-03T23:57:58.750Z,6.7
2019-04-03T23:58:58.475Z,6.72
2019-04-03T23:59:58.481Z,6.64
